createdAt,value
2022-10-18T00:00:17.111Z,27.50
2022-10-18T00:02:43.880Z,26.50
2022-10-18T00:05:10.835Z,29.00
2022-10-18T00:07:37.812Z,27.65
2022-10-18T00:10:05.565Z,27.90
2022-10-18T00:12:34.696Z,27.25
2022-10-18T00:15:02.196Z,25.75
2022-10-18T00:17:29.364Z,26.63
2022-10-18T00:19:56.436Z,27.83
2022-10-18T00:22:23.264Z,29.15
2022-10-18T00:24:50.199Z,29.30
2022-10-18T00:27:17.056Z,28.95
2022-10-18T00:29:43.836Z,27.48
2022-10-18T00:32:12.206Z,27.73
2022-10-18T00:34:40.323Z,26.90
2022-10-18T00:37:07.119Z,27.83
2022-10-18T00:39:34.543Z,29.27
2022-10-18T00:42:01.583Z,28.98
2022-10-18T00:44:28.309Z,28.13
2022-10-18T00:47:09.317Z,29.10
2022-10-18T00:49:40.652Z,30.52
2022-10-18T00:52:24.063Z,30.58
2022-10-18T00:54:52.112Z,31.00
2022-10-18T00:57:19.325Z,29.50
2022-10-18T00:59:46.940Z,28.48
2022-10-18T01:02:18.354Z,29.75
2022-10-18T01:04:46.728Z,29.35
2022-10-18T01:07:25.832Z,32.08
2022-10-18T01:10:19.038Z,28.15
2022-10-18T01:13:12.066Z,28.05
2022-10-18T01:16:03.081Z,27.60
2022-10-18T01:18:45.364Z,28.30
2022-10-18T01:21:21.121Z,29.20
2022-10-18T01:24:25.678Z,30.98
2022-10-18T01:27:10.884Z,32.88
2022-10-18T01:29:55.725Z,32.80
2022-10-18T01:32:27.988Z,32.43
2022-10-18T01:35:01.960Z,33.03
2022-10-18T01:37:31.593Z,33.47
2022-10-18T01:40:00.171Z,34.28
2022-10-18T01:42:27.612Z,34.65
2022-10-18T01:44:55.110Z,33.03
2022-10-18T01:47:22.776Z,33.47
2022-10-18T01:49:49.647Z,34.60
2022-10-18T01:52:16.962Z,34.58
2022-10-18T01:54:50.131Z,36.70
2022-10-18T01:57:20.812Z,34.42
2022-10-18T02:00:06.253Z,34.75
2022-10-18T02:02:35.967Z,33.70
2022-10-18T02:05:41.227Z,39.35
2022-10-18T02:08:33.120Z,37.17
2022-10-18T02:11:15.636Z,36.33
2022-10-18T02:13:53.335Z,35.08
2022-10-18T02:16:26.005Z,34.67
2022-10-18T02:19:00.163Z,33.25
2022-10-18T02:21:29.707Z,32.67
2022-10-18T02:23:59.182Z,33.35
2022-10-18T02:26:26.303Z,31.95
2022-10-18T02:28:53.097Z,32.47
2022-10-18T02:31:30.824Z,34.03
2022-10-18T02:34:02.487Z,34.85
2022-10-18T02:36:38.050Z,35.13
2022-10-18T02:39:14.430Z,35.97
2022-10-18T02:41:41.895Z,34.97
2022-10-18T02:44:09.105Z,36.70
2022-10-18T02:46:36.455Z,34.03
2022-10-18T02:49:03.680Z,34.60
2022-10-18T02:51:30.418Z,34.05
2022-10-18T02:53:57.181Z,33.80
2022-10-18T02:56:24.080Z,35.70
2022-10-18T02:58:50.844Z,37.60
2022-10-18T03:01:17.625Z,41.22
2022-10-18T03:03:44.484Z,39.22
2022-10-18T03:06:11.288Z,39.50
2022-10-18T03:08:38.275Z,37.40
2022-10-18T03:11:05.221Z,35.45
2022-10-18T03:13:34.207Z,34.42
2022-10-18T03:16:01.783Z,35.70
2022-10-18T03:18:28.533Z,35.42
2022-10-18T03:20:55.323Z,34.95
2022-10-18T03:23:22.213Z,36.35
2022-10-18T03:25:49.082Z,35.33
2022-10-18T03:28:16.134Z,36.85
2022-10-18T03:30:42.935Z,37.08
2022-10-18T03:33:10.094Z,38.67
2022-10-18T03:35:36.899Z,36.95
2022-10-18T03:38:03.972Z,37.33
2022-10-18T03:43:02.954Z,39.83
2022-10-18T03:45:31.370Z,38.55
2022-10-18T03:47:58.442Z,39.28
2022-10-18T03:50:25.265Z,38.30
2022-10-18T03:52:52.017Z,39.22
2022-10-18T03:55:18.800Z,37.97
2022-10-18T03:57:45.585Z,39.20
2022-10-18T04:00:12.851Z,37.85
2022-10-18T04:02:39.959Z,34.40
2022-10-18T04:05:07.675Z,35.13
2022-10-18T04:10:02.131Z,33.65
2022-10-18T04:12:29.099Z,35.88
2022-10-18T04:14:56.039Z,36.70
2022-10-18T04:17:22.834Z,38.00
2022-10-18T04:19:49.611Z,37.33
2022-10-18T04:22:16.434Z,37.67
2022-10-18T04:24:43.275Z,39.33
2022-10-18T04:27:10.154Z,39.75
2022-10-18T04:29:36.972Z,38.42
2022-10-18T04:32:03.857Z,40.47
2022-10-18T04:34:30.683Z,38.15
2022-10-18T04:36:57.552Z,38.78
2022-10-18T04:39:24.299Z,40.35
2022-10-18T04:41:51.068Z,39.33
2022-10-18T04:44:17.816Z,40.08
2022-10-18T04:46:44.578Z,43.13
2022-10-18T04:49:11.324Z,40.88
2022-10-18T04:51:38.091Z,41.28
2022-10-18T04:54:04.833Z,41.97
2022-10-18T04:56:32.578Z,40.58
2022-10-18T04:59:00.003Z,38.53
2022-10-18T05:01:26.990Z,40.17
2022-10-18T05:03:55.257Z,38.60
2022-10-18T05:06:23.193Z,40.40
2022-10-18T05:08:50.174Z,43.55
2022-10-18T05:11:16.923Z,40.72
2022-10-18T05:13:46.043Z,42.22
2022-10-18T05:16:16.149Z,42.53
2022-10-18T05:18:43.375Z,42.08
2022-10-18T06:17:36.319Z,42.50
2022-10-18T06:20:03.636Z,42.80
2022-10-18T06:22:30.429Z,44.95
2022-10-18T06:24:57.415Z,43.42
2022-10-18T06:27:24.288Z,42.88
2022-10-18T06:32:43.068Z,43.40
2022-10-18T07:50:28.564Z,67.13
2022-10-18T07:52:58.496Z,65.57
2022-10-18T07:55:25.642Z,66.03
2022-10-18T07:57:53.658Z,72.82
2022-10-18T08:00:29.270Z,67.35
2022-10-18T08:02:57.667Z,72.95
2022-10-18T08:05:26.975Z,74.50
2022-10-18T08:07:55.118Z,75.40
2022-10-18T08:10:24.539Z,76.88
2022-10-18T08:12:52.251Z,68.70
2022-10-18T08:15:21.832Z,68.43
2022-10-18T08:17:49.270Z,69.60
2022-10-18T08:20:29.919Z,73.30
2022-10-18T08:23:00.460Z,73.53
2022-10-18T08:25:28.762Z,71.35
2022-10-18T08:27:55.822Z,68.47
2022-10-18T08:30:23.681Z,65.28
2022-10-18T08:32:51.722Z,60.97
2022-10-18T08:35:18.574Z,56.65
2022-10-18T08:37:45.510Z,52.05
2022-10-18T08:40:15.725Z,52.40
2022-10-18T08:42:58.181Z,49.03
2022-10-18T08:45:42.009Z,48.08
2022-10-18T08:48:21.931Z,47.60
2022-10-18T08:50:51.033Z,44.30
2022-10-18T08:53:29.031Z,43.53
2022-10-18T08:56:05.176Z,42.20
2022-10-18T08:58:33.692Z,41.67
2022-10-18T09:01:24.984Z,40.92
2022-10-18T09:04:23.627Z,39.80
2022-10-18T09:07:13.192Z,35.65
2022-10-18T09:09:53.477Z,35.78
2022-10-18T09:12:44.123Z,32.20
2022-10-18T09:15:11.449Z,32.50
2022-10-18T09:17:53.504Z,33.10
2022-10-18T09:20:27.172Z,32.13
2022-10-18T09:23:05.825Z,32.22
2022-10-18T09:25:42.706Z,31.92
2022-10-18T09:28:31.232Z,33.47
2022-10-18T09:31:21.821Z,31.33
2022-10-18T09:34:02.944Z,31.00
2022-10-18T09:36:37.139Z,31.80
2022-10-18T09:39:16.629Z,29.48
2022-10-18T09:41:58.080Z,31.33
2022-10-18T09:44:41.723Z,31.70
2022-10-18T09:47:21.746Z,29.17
2022-10-18T09:50:01.597Z,28.33
2022-10-18T09:52:42.515Z,31.00
2022-10-18T09:55:24.078Z,29.13
2022-10-18T09:57:54.780Z,29.77
2022-10-18T10:00:48.381Z,29.52
2022-10-18T10:03:15.900Z,31.08
2022-10-18T10:05:44.415Z,36.92
2022-10-18T10:08:11.335Z,30.02
2022-10-18T10:10:47.485Z,28.92
2022-10-18T10:13:23.160Z,28.85
2022-10-18T10:18:52.494Z,29.25
2022-10-18T10:21:20.801Z,29.92
2022-10-18T10:23:53.138Z,31.55
2022-10-18T10:26:34.615Z,30.95
2022-10-18T10:29:01.751Z,29.13
2022-10-18T10:31:33.527Z,29.55
2022-10-18T10:36:30.073Z,28.52
2022-10-18T10:39:08.129Z,26.52
2022-10-18T10:41:35.271Z,28.25
2022-10-18T10:44:13.746Z,27.70
2022-10-18T10:46:40.740Z,27.95
2022-10-18T10:51:39.268Z,27.17
2022-10-18T10:54:13.568Z,26.58
2022-10-18T10:56:53.769Z,28.55
2022-10-18T10:59:22.635Z,28.38
2022-10-18T11:01:52.401Z,27.05
2022-10-18T11:04:28.719Z,28.17
2022-10-18T11:07:27.540Z,28.15
2022-10-18T11:10:14.380Z,27.67
2022-10-18T11:12:47.715Z,26.55
2022-10-18T11:15:36.676Z,28.65
2022-10-18T11:18:18.780Z,26.75
2022-10-18T11:21:01.178Z,27.23
2022-10-18T11:23:33.893Z,25.42
2022-10-18T11:26:12.836Z,27.38
2022-10-18T11:29:08.790Z,26.65
2022-10-18T11:31:54.158Z,28.20
2022-10-18T11:34:29.921Z,27.42
2022-10-18T11:37:39.228Z,26.55
2022-10-18T11:40:15.469Z,26.25
2022-10-18T11:42:42.249Z,27.15
2022-10-18T11:48:21.240Z,27.50
2022-10-18T11:51:07.933Z,28.98
2022-10-18T11:53:40.699Z,28.60
2022-10-18T11:56:25.267Z,28.63
2022-10-18T11:59:18.380Z,27.42
2022-10-18T12:02:26.796Z,27.40
2022-10-18T12:08:02.054Z,28.15
2022-10-18T12:10:44.482Z,27.70
2022-10-18T12:13:45.449Z,27.25
2022-10-18T12:16:12.838Z,26.58
2022-10-18T12:21:25.731Z,24.90
2022-10-18T12:24:00.763Z,26.85
2022-10-18T12:26:29.780Z,25.88
2022-10-18T12:29:18.393Z,24.83
2022-10-18T12:32:16.301Z,25.10
2022-10-18T12:34:49.134Z,27.80
2022-10-18T12:37:36.263Z,26.48
2022-10-18T12:40:25.479Z,26.85
2022-10-18T12:42:53.944Z,26.73
2022-10-18T12:45:26.849Z,26.75
2022-10-18T12:47:55.172Z,31.33
2022-10-18T12:50:30.160Z,26.27
2022-10-18T12:53:24.115Z,27.05
2022-10-18T12:55:53.699Z,24.67
2022-10-18T12:58:25.592Z,23.77
2022-10-18T13:00:54.216Z,25.55
2022-10-18T13:03:31.134Z,23.40
2022-10-18T13:06:04.165Z,24.08
2022-10-18T13:08:38.436Z,25.40
2022-10-18T13:11:08.293Z,23.30
2022-10-18T13:14:02.599Z,24.23
2022-10-18T13:16:29.322Z,23.85
2022-10-18T13:19:12.063Z,23.67
2022-10-18T13:22:16.870Z,23.27
2022-10-18T13:25:10.979Z,23.88
2022-10-18T13:27:57.637Z,22.95
2022-10-18T13:30:31.847Z,22.58
2022-10-18T13:33:26.421Z,23.25
2022-10-18T13:36:13.320Z,22.88
2022-10-18T13:38:58.307Z,22.77
2022-10-18T13:41:34.536Z,23.08
2022-10-18T13:44:02.660Z,23.80
2022-10-18T13:46:36.824Z,22.58
2022-10-18T13:49:22.199Z,22.73
2022-10-18T13:52:11.406Z,23.13
2022-10-18T13:54:45.052Z,22.88
2022-10-18T13:57:22.910Z,23.63
2022-10-18T14:00:17.075Z,23.25
2022-10-18T14:02:52.010Z,22.33
2022-10-18T14:05:46.982Z,23.33
2022-10-18T14:09:06.335Z,22.17
2022-10-18T14:11:46.270Z,22.58
2022-10-18T14:14:23.132Z,24.42
2022-10-18T14:17:03.200Z,24.38
2022-10-18T14:19:51.942Z,23.27
2022-10-18T14:22:36.410Z,24.25
2022-10-18T14:25:03.263Z,24.15
2022-10-18T14:27:32.980Z,22.95
2022-10-18T14:30:29.575Z,23.20
2022-10-18T14:32:56.422Z,23.42
2022-10-18T14:35:33.962Z,24.52
2022-10-18T14:38:02.205Z,23.42
2022-10-18T14:40:33.890Z,23.23
2022-10-18T14:45:40.396Z,22.45
2022-10-18T14:48:21.094Z,23.05
2022-10-18T14:50:59.295Z,24.85
2022-10-18T14:53:32.649Z,23.08
2022-10-18T14:56:01.000Z,24.92
2022-10-18T14:58:28.291Z,23.98
2022-10-18T15:00:55.536Z,24.30
2022-10-18T15:03:23.420Z,24.05
2022-10-18T15:05:54.146Z,24.40
2022-10-18T15:08:22.114Z,24.90
2022-10-18T15:10:49.469Z,25.40
2022-10-18T15:13:17.489Z,24.63
2022-10-18T15:15:45.290Z,25.10
2022-10-18T15:18:22.310Z,24.02
2022-10-18T15:21:24.444Z,25.33
2022-10-18T15:26:36.472Z,25.58
2022-10-18T15:29:06.133Z,28.02
2022-10-18T15:32:04.599Z,28.08
2022-10-18T15:34:31.473Z,26.73
2022-10-18T15:36:58.390Z,28.83
2022-10-18T15:39:27.574Z,28.63
2022-10-18T15:41:58.790Z,29.30
2022-10-18T15:44:31.896Z,29.60
2022-10-18T15:47:21.803Z,31.00
2022-10-18T15:49:56.654Z,29.95
2022-10-18T15:52:38.466Z,29.00
2022-10-18T15:55:30.277Z,29.83
2022-10-18T15:58:11.209Z,30.83
2022-10-18T16:00:39.052Z,29.17
2022-10-18T16:03:08.679Z,28.83
2022-10-18T16:05:37.356Z,30.45
2022-10-18T16:08:04.766Z,32.00
2022-10-18T16:10:31.580Z,30.00
2022-10-18T16:12:58.304Z,31.50
2022-10-18T16:15:25.110Z,32.08
2022-10-18T16:17:52.418Z,32.17
2022-10-18T16:20:22.260Z,32.65
2022-10-18T16:22:49.113Z,33.15
2022-10-18T16:25:16.176Z,33.65
2022-10-18T16:27:42.967Z,32.80
2022-10-18T16:30:17.716Z,32.08
2022-10-18T16:32:44.455Z,32.40
2022-10-18T16:35:12.505Z,33.47
2022-10-18T16:37:40.006Z,31.05
2022-10-18T16:40:23.313Z,33.65
2022-10-18T16:42:50.132Z,32.97
2022-10-18T16:45:17.099Z,32.58
2022-10-18T16:47:44.375Z,32.15
2022-10-18T16:50:17.894Z,33.17
2022-10-18T16:52:45.043Z,34.42
2022-10-18T16:55:21.020Z,35.50
2022-10-18T16:57:49.004Z,33.35
2022-10-18T17:00:19.514Z,34.75
2022-10-18T17:02:46.755Z,35.35
2022-10-18T17:05:13.624Z,35.65
2022-10-18T17:07:40.433Z,35.40
2022-10-18T17:10:07.923Z,36.70
2022-10-18T17:12:34.794Z,35.72
2022-10-18T17:15:01.780Z,35.47
2022-10-18T17:17:28.559Z,37.20
2022-10-18T17:19:56.040Z,34.15
2022-10-18T17:22:23.214Z,35.58
2022-10-18T17:24:50.134Z,34.88
2022-10-18T17:27:17.622Z,33.97
2022-10-18T17:29:44.471Z,34.58
2022-10-18T17:32:11.239Z,35.47
2022-10-18T17:34:38.256Z,36.00
2022-10-18T17:37:05.541Z,35.63
2022-10-18T17:39:32.892Z,35.88
2022-10-18T17:41:59.936Z,35.92
2022-10-18T17:44:26.740Z,36.05
2022-10-18T17:46:54.032Z,35.47
2022-10-18T17:49:22.136Z,34.53
2022-10-18T17:51:49.111Z,35.20
2022-10-18T17:54:16.192Z,35.20
2022-10-18T17:56:43.156Z,38.00
2022-10-18T17:59:09.950Z,37.47
2022-10-18T18:01:37.008Z,37.47
2022-10-18T18:04:04.054Z,37.67
2022-10-18T18:06:36.379Z,36.20
2022-10-18T18:09:13.137Z,34.80
2022-10-18T18:11:41.342Z,34.20
2022-10-18T18:14:09.622Z,36.47
2022-10-18T18:16:41.570Z,36.08
2022-10-18T18:19:09.843Z,34.85
2022-10-18T18:21:37.790Z,35.10
2022-10-18T18:24:05.056Z,37.38
2022-10-18T18:26:33.067Z,37.25
2022-10-18T18:29:00.563Z,49.40
2022-10-18T18:31:30.782Z,140.23
2022-10-18T18:34:01.277Z,47.00
2022-10-18T18:36:32.558Z,43.58
2022-10-18T18:38:59.510Z,37.97
2022-10-18T18:41:28.448Z,36.42
2022-10-18T18:44:00.596Z,33.45
2022-10-18T18:46:29.775Z,35.60
2022-10-18T18:49:00.035Z,34.45
2022-10-18T18:51:26.976Z,34.33
2022-10-18T18:53:54.494Z,32.58
2022-10-18T18:56:24.716Z,33.28
2022-10-18T18:58:52.764Z,32.45
2022-10-18T19:01:22.559Z,34.33
2022-10-18T19:03:51.880Z,35.60
2022-10-18T19:06:32.994Z,35.88
2022-10-18T19:09:03.249Z,35.50
2022-10-18T19:11:38.774Z,36.70
2022-10-18T19:14:07.669Z,36.97
2022-10-18T19:16:37.893Z,35.90
2022-10-18T19:19:07.457Z,36.28
2022-10-18T19:21:39.941Z,37.78
2022-10-18T19:24:07.418Z,35.90
2022-10-18T19:26:38.671Z,37.60
2022-10-18T19:29:05.807Z,38.17
2022-10-18T19:31:34.154Z,39.83
2022-10-18T19:34:02.494Z,37.42
2022-10-18T19:36:30.197Z,36.25
2022-10-18T19:38:58.158Z,38.03
2022-10-18T19:43:57.743Z,37.53
2022-10-18T19:46:24.692Z,35.75
2022-10-18T19:48:54.038Z,37.70
2022-10-18T19:51:24.036Z,37.05
2022-10-18T19:53:52.173Z,36.63
2022-10-18T19:56:21.702Z,37.15
2022-10-18T19:58:49.587Z,38.38
2022-10-18T20:01:17.409Z,37.28
2022-10-18T20:03:44.615Z,38.25
2022-10-18T20:06:12.043Z,37.88
2022-10-18T20:08:39.303Z,36.38
2022-10-18T20:11:09.571Z,35.53
2022-10-18T20:13:37.030Z,38.55
2022-10-18T20:16:06.982Z,38.28
2022-10-18T20:18:33.811Z,37.88
2022-10-18T20:21:00.586Z,35.38
2022-10-18T20:23:27.376Z,37.75
2022-10-18T20:26:00.819Z,35.83
2022-10-18T20:28:28.572Z,36.97
2022-10-18T20:31:06.418Z,34.65
2022-10-18T20:33:34.282Z,36.47
2022-10-18T20:36:08.078Z,39.47
2022-10-18T20:38:36.835Z,36.60
2022-10-18T20:41:05.843Z,36.90
2022-10-18T20:43:32.995Z,37.28
2022-10-18T20:46:00.679Z,38.60
2022-10-18T20:48:28.508Z,36.63
2022-10-18T20:50:55.392Z,34.13
2022-10-18T20:53:23.017Z,38.40
2022-10-18T20:55:50.361Z,37.75
2022-10-18T20:58:17.327Z,34.85
2022-10-18T21:00:44.099Z,35.67
2022-10-18T21:05:37.685Z,37.10
2022-10-18T21:08:04.570Z,38.55
2022-10-18T21:10:31.373Z,38.63
2022-10-18T21:12:58.087Z,80.00
2022-10-18T21:15:24.875Z,44.00
2022-10-18T21:17:51.857Z,35.85
2022-10-18T21:20:18.984Z,37.38
2022-10-18T21:22:45.831Z,38.08
2022-10-18T21:25:12.630Z,37.42
2022-10-18T21:27:39.683Z,40.28
2022-10-18T21:30:06.872Z,39.30
2022-10-18T21:32:33.928Z,41.22
2022-10-18T21:35:01.051Z,40.42
2022-10-18T21:37:27.926Z,39.17
2022-10-18T21:39:54.826Z,39.40
2022-10-18T21:42:21.563Z,40.88
2022-10-18T21:44:48.355Z,39.20
2022-10-18T21:47:15.608Z,39.50
2022-10-18T21:49:42.459Z,36.67
2022-10-18T21:52:09.287Z,38.55
2022-10-18T21:54:36.058Z,38.30
2022-10-18T21:57:02.808Z,38.58
2022-10-18T21:59:29.677Z,37.65
2022-10-18T22:01:56.417Z,39.17
2022-10-18T22:04:24.677Z,35.83
2022-10-18T22:06:52.221Z,36.88
2022-10-18T22:09:19.378Z,38.22
2022-10-18T22:11:49.659Z,38.00
2022-10-18T22:14:16.611Z,37.30
2022-10-18T22:16:43.449Z,37.80
2022-10-18T22:19:10.226Z,37.22
2022-10-18T22:21:37.055Z,37.13
2022-10-18T22:24:06.392Z,37.60
2022-10-18T22:26:36.010Z,37.25
2022-10-18T22:29:15.144Z,37.10
2022-10-18T22:31:50.835Z,37.25
2022-10-18T22:34:20.511Z,34.70
2022-10-18T22:36:47.337Z,33.60
2022-10-18T22:39:15.629Z,36.35
2022-10-18T22:41:43.147Z,34.45
2022-10-18T22:44:12.499Z,34.72
2022-10-18T22:46:40.263Z,35.70
2022-10-18T22:49:07.552Z,33.58
2022-10-18T22:54:02.555Z,45.53
2022-10-18T22:56:29.317Z,37.53
2022-10-18T22:58:56.176Z,42.85
2022-10-18T23:01:24.098Z,43.47
2022-10-18T23:03:59.044Z,46.05
2022-10-18T23:06:25.855Z,47.55
2022-10-18T23:08:54.171Z,46.55
2022-10-18T23:11:21.424Z,38.33
2022-10-18T23:13:48.496Z,42.47
2022-10-18T23:16:15.639Z,43.53
2022-10-18T23:18:42.642Z,41.53
2022-10-18T23:21:12.189Z,38.17
2022-10-18T23:23:40.949Z,37.78
2022-10-18T23:26:13.512Z,38.35
2022-10-18T23:28:43.169Z,39.35
2022-10-18T23:31:17.965Z,37.63
2022-10-18T23:33:46.823Z,43.45
2022-10-18T23:36:13.976Z,42.70
2022-10-18T23:38:40.830Z,40.58
2022-10-18T23:41:10.114Z,42.08
2022-10-18T23:43:37.191Z,42.45
2022-10-18T23:46:04.771Z,40.10
2022-10-18T23:48:31.879Z,35.80
2022-10-18T23:50:58.704Z,37.60
2022-10-18T23:53:25.599Z,35.53
2022-10-18T23:55:58.181Z,38.30
2022-10-18T23:58:25.707Z,38.08
